首页
METAR-TAF:

METAR-TAF

机场 :

梅赫拉巴德國際機場

德黑兰, 伊朗

纬度: 35-41N, 经度: 051-21E, 海拔: 1204米

当前天气观测

该预报发布于13分钟前的17:30 UTC
风速6节,风向北转西北
温度 32°C
湿度 10%
气压 1014 hPa
能见度10公里或以上
1500米以下无云,无积雨云

METAR: OIII 041730Z 34006KT CAVOK 32/M04 Q1014 A2995

时间: 22:13 (17:43 UTC)

预报

该预报发布于6小时和43分钟前的11:00 UTC
预报有效从04日的 12点(UTC)到 05日的 18点(UTC)
风速8节,风向西南
能見度: 8000
短暂存在
从 04日的 12点(UTC)到 04日的 15点(UTC)
风速24节,风向西转西南
成为
从 05日的 02点(UTC)到 05日的 04点(UTC)
风速14节,风向北转西北
短暂存在
从 05日的 10点(UTC)到 05日的 16点(UTC)
风速28节,风向西

TAF: OIII 041100Z 0412/0518 22008KT 8000 NSC TEMPO 0412/0415 24024KT BECMG 0502/0504 34014KT TEMPO 0510/0516 26028KT

超过4000个机场的气象观测和天气预报(METAR&TAF报告)。

可查询的气象台以黄色和红色小点在地图上表示。

将鼠标移到小点上方,可查看气象台名称。

然后点击查看天气观测和预报。

如需切换地图:点击带黑十字的绿色按钮放大地图;点击带横线的绿色按钮缩小地图;或者点击绿色箭头查看邻近地区的地图。


METAR-TAF: